sensor_id;sensor_type;location;lat;lon;timestamp;pressure;altitude;pressure_sealevel;temperature;humidity
56912;BME280;42800;53.928;27.662;2022-09-13T00:00:21;98794.72;;;11.17;100.00
56912;BME280;42800;53.928;27.662;2022-09-13T00:02:47;98796.16;;;11.04;100.00
56912;BME280;42800;53.928;27.662;2022-09-13T00:05:14;98787.59;;;11.13;100.00
56912;BME280;42800;53.928;27.662;2022-09-13T00:07:41;98803.97;;;11.02;100.00
56912;BME280;42800;53.928;27.662;2022-09-13T00:10:07;98790.53;;;10.90;100.00
56912;BME280;42800;53.928;27.662;2022-09-13T00:12:33;98787.22;;;11.14;100.00
56912;BME280;42800;53.928;27.662;2022-09-13T00:15:00;98791.72;;;11.33;100.00
56912;BME280;42800;53.928;27.662;2022-09-13T00:17:26;98799.03;;;11.18;100.00
56912;BME280;42800;53.928;27.662;2022-09-13T00:19:52;98794.78;;;10.83;100.00
56912;BME280;42800;53.928;27.662;2022-09-13T00:22:19;98786.41;;;10.73;100.00
56912;BME280;42800;53.928;27.662;2022-09-13T00:24:45;98778.59;;;11.12;100.00
56912;BME280;42800;53.928;27.662;2022-09-13T00:27:12;98787.44;;;10.95;100.00
56912;BME280;42800;53.928;27.662;2022-09-13T00:29:38;98776.69;;;10.45;100.00
56912;BME280;42800;53.928;27.662;2022-09-13T00:32:04;98761.91;;;10.87;100.00
56912;BME280;42800;53.928;27.662;2022-09-13T00:34:30;98756.53;;;11.01;100.00
56912;BME280;42800;53.928;27.662;2022-09-13T00:36:57;98766.13;;;11.22;100.00
56912;BME280;42800;53.928;27.662;2022-09-13T00:39:24;98780.34;;;10.90;100.00
56912;BME280;42800;53.928;27.662;2022-09-13T00:41:50;98788.81;;;11.15;100.00
56912;BME280;42800;53.928;27.662;2022-09-13T00:47:34;98798.94;;;11.07;100.00
56912;BME280;42800;53.928;27.662;2022-09-13T00:50:07;98809.09;;;11.03;100.00
56912;BME280;42800;53.928;27.662;2022-09-13T00:52:36;98812.44;;;11.27;100.00
56912;BME280;42800;53.928;27.662;2022-09-13T00:55:09;98815.47;;;11.15;100.00
56912;BME280;42800;53.928;27.662;2022-09-13T00:57:36;98836.13;;;11.05;100.00
56912;BME280;42800;53.928;27.662;2022-09-13T01:00:07;98832.50;;;10.94;100.00
56912;BME280;42800;53.928;27.662;2022-09-13T01:02:36;98820.97;;;10.81;100.00
56912;BME280;42800;53.928;27.662;2022-09-13T01:05:03;98804.84;;;10.76;100.00
56912;BME280;42800;53.928;27.662;2022-09-13T01:07:31;98795.56;;;10.84;100.00
56912;BME280;42800;53.928;27.662;2022-09-13T01:09:58;98795.44;;;11.11;100.00
56912;BME280;42800;53.928;27.662;2022-09-13T01:12:29;98801.00;;;11.21;100.00
56912;BME280;42800;53.928;27.662;2022-09-13T01:14:58;98805.56;;;11.03;100.00
56912;BME280;42800;53.928;27.662;2022-09-13T01:17:26;98800.72;;;10.93;100.00
56912;BME280;42800;53.928;27.662;2022-09-13T01:19:53;98796.13;;;11.00;100.00
56912;BME280;42800;53.928;27.662;2022-09-13T01:26:03;98794.25;;;11.12;100.00
56912;BME280;42800;53.928;27.662;2022-09-13T01:31:36;98793.97;;;11.20;100.00
56912;BME280;42800;53.928;27.662;2022-09-13T01:34:13;98798.44;;;10.98;100.00
56912;BME280;42800;53.928;27.662;2022-09-13T01:39:43;98799.50;;;11.27;100.00
56912;BME280;42800;53.928;27.662;2022-09-13T01:42:18;98798.66;;;11.20;100.00
56912;BME280;42800;53.928;27.662;2022-09-13T01:45:02;98804.16;;;11.20;100.00
56912;BME280;42800;53.928;27.662;2022-09-13T01:47:33;98804.34;;;11.41;100.00
56912;BME280;42800;53.928;27.662;2022-09-13T01:50:11;98829.63;;;11.20;100.00
56912;BME280;42800;53.928;27.662;2022-09-13T01:52:46;98827.78;;;11.35;100.00
56912;BME280;42800;53.928;27.662;2022-09-13T01:55:22;98835.72;;;11.44;100.00
56912;BME280;42800;53.928;27.662;2022-09-13T01:57:56;98835.56;;;11.29;100.00
56912;BME280;42800;53.928;27.662;2022-09-13T02:00:27;98841.63;;;11.49;100.00
56912;BME280;42800;53.928;27.662;2022-09-13T02:03:00;98843.00;;;11.25;100.00
56912;BME280;42800;53.928;27.662;2022-09-13T02:05:34;98834.47;;;11.34;100.00
56912;BME280;42800;53.928;27.662;2022-09-13T02:08:07;98828.16;;;11.30;100.00
56912;BME280;42800;53.928;27.662;2022-09-13T02:10:37;98833.69;;;11.34;100.00
56912;BME280;42800;53.928;27.662;2022-09-13T02:13:10;98856.09;;;11.43;100.00
56912;BME280;42800;53.928;27.662;2022-09-13T02:15:40;98854.91;;;11.40;100.00
56912;BME280;42800;53.928;27.662;2022-09-13T02:18:14;98857.00;;;11.54;100.00
56912;BME280;42800;53.928;27.662;2022-09-13T02:20:44;98871.13;;;11.56;100.00
56912;BME280;42800;53.928;27.662;2022-09-13T02:23:14;98852.84;;;11.30;100.00
56912;BME280;42800;53.928;27.662;2022-09-13T02:25:43;98846.41;;;11.15;100.00
56912;BME280;42800;53.928;27.662;2022-09-13T02:28:14;98833.63;;;11.26;100.00
56912;BME280;42800;53.928;27.662;2022-09-13T02:30:47;98824.41;;;11.52;100.00
56912;BME280;42800;53.928;27.662;2022-09-13T02:33:17;98824.59;;;11.29;100.00
56912;BME280;42800;53.928;27.662;2022-09-13T02:35:50;98825.97;;;11.46;100.00
56912;BME280;42800;53.928;27.662;2022-09-13T02:38:21;98838.56;;;11.54;100.00
56912;BME280;42800;53.928;27.662;2022-09-13T02:40:52;98842.53;;;11.61;100.00
56912;BME280;42800;53.928;27.662;2022-09-13T02:43:25;98842.81;;;11.48;100.00
56912;BME280;42800;53.928;27.662;2022-09-13T02:46:04;98851.06;;;11.48;100.00
56912;BME280;42800;53.928;27.662;2022-09-13T02:48:44;98856.28;;;11.61;100.00
56912;BME280;42800;53.928;27.662;2022-09-13T02:51:17;98867.06;;;11.43;100.00
56912;BME280;42800;53.928;27.662;2022-09-13T02:53:52;98859.19;;;11.38;100.00
56912;BME280;42800;53.928;27.662;2022-09-13T02:56:25;98844.94;;;11.25;100.00
56912;BME280;42800;53.928;27.662;2022-09-13T02:58:57;98826.56;;;11.29;100.00
56912;BME280;42800;53.928;27.662;2022-09-13T03:01:27;98829.00;;;11.38;100.00
56912;BME280;42800;53.928;27.662;2022-09-13T03:03:54;98820.81;;;11.45;100.00
56912;BME280;42800;53.928;27.662;2022-09-13T03:06:22;98822.09;;;11.54;100.00
56912;BME280;42800;53.928;27.662;2022-09-13T03:08:48;98840.41;;;11.40;100.00
56912;BME280;42800;53.928;27.662;2022-09-13T03:11:21;98829.84;;;11.45;100.00
56912;BME280;42800;53.928;27.662;2022-09-13T03:14:05;98834.53;;;11.41;100.00
56912;BME280;42800;53.928;27.662;2022-09-13T03:16:44;98822.84;;;11.07;100.00
56912;BME280;42800;53.928;27.662;2022-09-13T03:19:25;98811.94;;;11.14;100.00
56912;BME280;42800;53.928;27.662;2022-09-13T03:22:04;98811.72;;;11.34;100.00
56912;BME280;42800;53.928;27.662;2022-09-13T03:24:45;98808.91;;;11.26;100.00
56912;BME280;42800;53.928;27.662;2022-09-13T03:27:19;98805.50;;;11.40;100.00
56912;BME280;42800;53.928;27.662;2022-09-13T03:29:50;98823.13;;;11.39;100.00
56912;BME280;42800;53.928;27.662;2022-09-13T03:32:24;98822.75;;;11.41;100.00
56912;BME280;42800;53.928;27.662;2022-09-13T03:34:58;98835.28;;;11.38;100.00
56912;BME280;42800;53.928;27.662;2022-09-13T03:37:32;98828.69;;;11.46;100.00
56912;BME280;42800;53.928;27.662;2022-09-13T03:40:06;98840.56;;;11.58;100.00
56912;BME280;42800;53.928;27.662;2022-09-13T03:42:38;98840.34;;;11.36;100.00
56912;BME280;42800;53.928;27.662;2022-09-13T03:45:08;98838.63;;;11.17;100.00
56912;BME280;42800;53.928;27.662;2022-09-13T03:47:36;98822.00;;;11.44;100.00
56912;BME280;42800;53.928;27.662;2022-09-13T03:50:07;98829.88;;;11.08;100.00
56912;BME280;42800;53.928;27.662;2022-09-13T03:52:35;98822.50;;;11.16;100.00
56912;BME280;42800;53.928;27.662;2022-09-13T03:55:02;98816.34;;;11.26;100.00
56912;BME280;42800;53.928;27.662;2022-09-13T03:57:28;98810.84;;;11.26;100.00
56912;BME280;42800;53.928;27.662;2022-09-13T03:59:55;98812.13;;;11.36;100.00
56912;BME280;42800;53.928;27.662;2022-09-13T04:02:24;98816.53;;;11.47;100.00
56912;BME280;42800;53.928;27.662;2022-09-13T04:04:50;98823.84;;;11.32;100.00
56912;BME280;42800;53.928;27.662;2022-09-13T04:07:19;98808.13;;;11.29;100.00
56912;BME280;42800;53.928;27.662;2022-09-13T04:09:45;98809.94;;;11.55;100.00
56912;BME280;42800;53.928;27.662;2022-09-13T04:12:12;98816.00;;;11.31;100.00
56912;BME280;42800;53.928;27.662;2022-09-13T04:14:39;98816.84;;;11.39;100.00
56912;BME280;42800;53.928;27.662;2022-09-13T04:17:05;98811.91;;;11.55;100.00
56912;BME280;42800;53.928;27.662;2022-09-13T04:19:32;98826.03;;;11.57;100.00
56912;BME280;42800;53.928;27.662;2022-09-13T04:21:58;98830.84;;;11.71;100.00
56912;BME280;42800;53.928;27.662;2022-09-13T04:24:26;98837.69;;;11.43;100.00
56912;BME280;42800;53.928;27.662;2022-09-13T04:26:53;98833.53;;;11.60;100.00
56912;BME280;42800;53.928;27.662;2022-09-13T04:29:20;98845.25;;;11.57;100.00
56912;BME280;42800;53.928;27.662;2022-09-13T04:31:47;98847.94;;;11.50;100.00
56912;BME280;42800;53.928;27.662;2022-09-13T04:34:14;98845.34;;;11.68;100.00
56912;BME280;42800;53.928;27.662;2022-09-13T04:36:40;98840.56;;;11.17;100.00
56912;BME280;42800;53.928;27.662;2022-09-13T04:39:06;98820.53;;;11.53;100.00
56912;BME280;42800;53.928;27.662;2022-09-13T04:41:33;98823.44;;;11.30;100.00
56912;BME280;42800;53.928;27.662;2022-09-13T04:43:59;98828.41;;;11.18;100.00
56912;BME280;42800;53.928;27.662;2022-09-13T04:46:26;98819.25;;;11.44;100.00
56912;BME280;42800;53.928;27.662;2022-09-13T04:48:52;98816.09;;;11.42;100.00
56912;BME280;42800;53.928;27.662;2022-09-13T04:51:19;98818.19;;;11.15;100.00
56912;BME280;42800;53.928;27.662;2022-09-13T04:53:46;98810.38;;;11.61;100.00
56912;BME280;42800;53.928;27.662;2022-09-13T04:56:16;98824.94;;;11.69;100.00
56912;BME280;42800;53.928;27.662;2022-09-13T04:58:45;98826.88;;;11.65;100.00
56912;BME280;42800;53.928;27.662;2022-09-13T05:01:11;98834.38;;;11.71;100.00
56912;BME280;42800;53.928;27.662;2022-09-13T05:03:37;98829.81;;;11.42;100.00
56912;BME280;42800;53.928;27.662;2022-09-13T05:06:05;98828.84;;;11.64;100.00
56912;BME280;42800;53.928;27.662;2022-09-13T05:08:32;98822.09;;;11.54;100.00
56912;BME280;42800;53.928;27.662;2022-09-13T05:10:58;98816.16;;;11.49;100.00
56912;BME280;42800;53.928;27.662;2022-09-13T05:13:24;98823.97;;;11.43;100.00
56912;BME280;42800;53.928;27.662;2022-09-13T05:15:54;98810.34;;;11.13;100.00
56912;BME280;42800;53.928;27.662;2022-09-13T05:18:21;98791.16;;;11.13;100.00
56912;BME280;42800;53.928;27.662;2022-09-13T05:20:47;98778.09;;;11.44;100.00
56912;BME280;42800;53.928;27.662;2022-09-13T05:23:13;98792.03;;;11.24;100.00
56912;BME280;42800;53.928;27.662;2022-09-13T05:25:40;98792.44;;;11.26;100.00
56912;BME280;42800;53.928;27.662;2022-09-13T05:28:06;98784.94;;;11.20;100.00
56912;BME280;42800;53.928;27.662;2022-09-13T05:30:32;98789.16;;;11.58;100.00
56912;BME280;42800;53.928;27.662;2022-09-13T05:32:59;98791.84;;;11.47;100.00
56912;BME280;42800;53.928;27.662;2022-09-13T05:35:25;98781.09;;;10.87;100.00
56912;BME280;42800;53.928;27.662;2022-09-13T05:37:51;98757.81;;;11.11;100.00
56912;BME280;42800;53.928;27.662;2022-09-13T05:40:17;98755.13;;;11.18;100.00
56912;BME280;42800;53.928;27.662;2022-09-13T05:42:44;98758.53;;;11.52;100.00
56912;BME280;42800;53.928;27.662;2022-09-13T05:45:10;98766.59;;;11.27;100.00
56912;BME280;42800;53.928;27.662;2022-09-13T05:47:36;98762.56;;;11.18;100.00
56912;BME280;42800;53.928;27.662;2022-09-13T05:50:04;98754.09;;;11.34;100.00
56912;BME280;42800;53.928;27.662;2022-09-13T05:52:30;98764.88;;;11.60;100.00
56912;BME280;42800;53.928;27.662;2022-09-13T05:54:57;98788.56;;;11.83;100.00
56912;BME280;42800;53.928;27.662;2022-09-13T05:57:23;98806.41;;;11.55;100.00
56912;BME280;42800;53.928;27.662;2022-09-13T05:59:49;98816.63;;;11.58;100.00
56912;BME280;42800;53.928;27.662;2022-09-13T06:02:15;98821.06;;;11.29;100.00
56912;BME280;42800;53.928;27.662;2022-09-13T06:04:41;98802.78;;;11.44;100.00
56912;BME280;42800;53.928;27.662;2022-09-13T06:07:10;98820.13;;;11.55;100.00
56912;BME280;42800;53.928;27.662;2022-09-13T06:09:37;98826.34;;;11.48;100.00
56912;BME280;42800;53.928;27.662;2022-09-13T06:12:03;98831.50;;;11.53;100.00
56912;BME280;42800;53.928;27.662;2022-09-13T06:14:30;98825.66;;;11.59;100.00
56912;BME280;42800;53.928;27.662;2022-09-13T06:16:56;98825.72;;;11.69;100.00
56912;BME280;42800;53.928;27.662;2022-09-13T06:19:22;98829.91;;;11.97;100.00
56912;BME280;42800;53.928;27.662;2022-09-13T06:21:48;98835.34;;;11.90;100.00
56912;BME280;42800;53.928;27.662;2022-09-13T06:24:15;98847.41;;;11.82;100.00
56912;BME280;42800;53.928;27.662;2022-09-13T06:26:41;98857.53;;;11.70;100.00
56912;BME280;42800;53.928;27.662;2022-09-13T06:29:09;98845.63;;;12.00;100.00
56912;BME280;42800;53.928;27.662;2022-09-13T06:31:36;98856.56;;;11.93;100.00
56912;BME280;42800;53.928;27.662;2022-09-13T06:34:03;98857.47;;;12.11;100.00
56912;BME280;42800;53.928;27.662;2022-09-13T06:36:30;98868.66;;;11.85;100.00
56912;BME280;42800;53.928;27.662;2022-09-13T06:38:56;98873.34;;;11.84;100.00
56912;BME280;42800;53.928;27.662;2022-09-13T06:41:25;98867.97;;;11.98;100.00
56912;BME280;42800;53.928;27.662;2022-09-13T06:43:53;98883.66;;;11.94;100.00
56912;BME280;42800;53.928;27.662;2022-09-13T06:46:20;98891.44;;;11.89;100.00
56912;BME280;42800;53.928;27.662;2022-09-13T06:48:46;98901.31;;;11.93;100.00
56912;BME280;42800;53.928;27.662;2022-09-13T06:51:15;98890.41;;;12.08;100.00
56912;BME280;42800;53.928;27.662;2022-09-13T06:53:42;98899.16;;;12.24;100.00
56912;BME280;42800;53.928;27.662;2022-09-13T06:56:11;98910.94;;;12.24;100.00
56912;BME280;42800;53.928;27.662;2022-09-13T06:58:39;98924.66;;;12.17;100.00
56912;BME280;42800;53.928;27.662;2022-09-13T07:01:07;98927.47;;;12.28;100.00
56912;BME280;42800;53.928;27.662;2022-09-13T07:03:37;98933.66;;;12.14;100.00
56912;BME280;42800;53.928;27.662;2022-09-13T07:06:08;98919.81;;;12.00;100.00
56912;BME280;42800;53.928;27.662;2022-09-13T07:08:35;98898.25;;;12.09;100.00
56912;BME280;42800;53.928;27.662;2022-09-13T07:11:01;98901.19;;;12.34;100.00
56912;BME280;42800;53.928;27.662;2022-09-13T07:13:27;98917.03;;;12.55;100.00
56912;BME280;42800;53.928;27.662;2022-09-13T07:15:55;98939.00;;;12.48;100.00
56912;BME280;42800;53.928;27.662;2022-09-13T07:18:21;98938.84;;;12.27;100.00
56912;BME280;42800;53.928;27.662;2022-09-13T07:20:48;98935.81;;;12.46;100.00
56912;BME280;42800;53.928;27.662;2022-09-13T07:23:14;98955.53;;;12.55;100.00
56912;BME280;42800;53.928;27.662;2022-09-13T07:25:40;98963.59;;;12.27;100.00
56912;BME280;42800;53.928;27.662;2022-09-13T07:28:06;98956.88;;;12.20;100.00
56912;BME280;42800;53.928;27.662;2022-09-13T07:30:33;98948.16;;;12.15;100.00
56912;BME280;42800;53.928;27.662;2022-09-13T07:33:00;98939.44;;;12.06;100.00
56912;BME280;42800;53.928;27.662;2022-09-13T07:35:26;98910.56;;;12.26;100.00
56912;BME280;42800;53.928;27.662;2022-09-13T07:37:52;98924.03;;;11.90;100.00
56912;BME280;42800;53.928;27.662;2022-09-13T07:40:18;98912.97;;;12.35;100.00
56912;BME280;42800;53.928;27.662;2022-09-13T07:42:45;98929.44;;;12.31;100.00
56912;BME280;42800;53.928;27.662;2022-09-13T07:45:11;98928.91;;;12.66;100.00
56912;BME280;42800;53.928;27.662;2022-09-13T07:47:38;98945.41;;;12.66;100.00
56912;BME280;42800;53.928;27.662;2022-09-13T07:50:06;98953.66;;;12.66;100.00
56912;BME280;42800;53.928;27.662;2022-09-13T07:52:32;98964.41;;;12.93;100.00
56912;BME280;42800;53.928;27.662;2022-09-13T07:55:02;98990.59;;;12.72;100.00
56912;BME280;42800;53.928;27.662;2022-09-13T07:57:28;98999.34;;;12.89;100.00
56912;BME280;42800;53.928;27.662;2022-09-13T07:59:54;98998.09;;;12.76;100.00
56912;BME280;42800;53.928;27.662;2022-09-13T08:02:21;99010.81;;;12.98;100.00
56912;BME280;42800;53.928;27.662;2022-09-13T08:04:47;99016.00;;;13.10;100.00
56912;BME280;42800;53.928;27.662;2022-09-13T08:07:14;99037.56;;;13.01;100.00
56912;BME280;42800;53.928;27.662;2022-09-13T08:09:40;99036.50;;;13.20;100.00
56912;BME280;42800;53.928;27.662;2022-09-13T08:12:06;99035.72;;;13.19;100.00
56912;BME280;42800;53.928;27.662;2022-09-13T08:14:33;99052.22;;;13.19;100.00
56912;BME280;42800;53.928;27.662;2022-09-13T08:16:59;99042.16;;;13.52;100.00
56912;BME280;42800;53.928;27.662;2022-09-13T08:19:26;99060.78;;;13.07;100.00
56912;BME280;42800;53.928;27.662;2022-09-13T08:21:52;99058.50;;;13.16;100.00
56912;BME280;42800;53.928;27.662;2022-09-13T08:24:20;99073.78;;;13.10;100.00
56912;BME280;42800;53.928;27.662;2022-09-13T08:26:47;99065.16;;;13.19;100.00
56912;BME280;42800;53.928;27.662;2022-09-13T08:29:14;99067.09;;;13.11;100.00
56912;BME280;42800;53.928;27.662;2022-09-13T08:31:40;99065.41;;;12.92;100.00
56912;BME280;42800;53.928;27.662;2022-09-13T08:34:09;99066.28;;;13.04;100.00
56912;BME280;42800;53.928;27.662;2022-09-13T08:36:36;99054.69;;;12.77;100.00
56912;BME280;42800;53.928;27.662;2022-09-13T08:39:02;99055.31;;;13.14;100.00
56912;BME280;42800;53.928;27.662;2022-09-13T08:44:33;99056.50;;;13.10;100.00
56912;BME280;42800;53.928;27.662;2022-09-13T08:47:10;99065.97;;;12.61;100.00
56912;BME280;42800;53.928;27.662;2022-09-13T08:49:42;99053.78;;;12.14;100.00
56912;BME280;42800;53.928;27.662;2022-09-13T08:52:19;99050.72;;;12.26;100.00
56912;BME280;42800;53.928;27.662;2022-09-13T08:54:49;99050.09;;;12.40;100.00
56912;BME280;42800;53.928;27.662;2022-09-13T08:57:22;99044.47;;;12.29;100.00
56912;BME280;42800;53.928;27.662;2022-09-13T08:59:56;99037.41;;;12.28;100.00
56912;BME280;42800;53.928;27.662;2022-09-13T09:02:42;99043.38;;;12.37;100.00
56912;BME280;42800;53.928;27.662;2022-09-13T09:05:15;99044.47;;;12.29;100.00
56912;BME280;42800;53.928;27.662;2022-09-13T09:07:45;99043.63;;;12.21;100.00
56912;BME280;42800;53.928;27.662;2022-09-13T09:10:16;99043.75;;;11.95;100.00
56912;BME280;42800;53.928;27.662;2022-09-13T09:12:45;99032.75;;;12.36;100.00
56912;BME280;42800;53.928;27.662;2022-09-13T09:15:15;99025.00;;;12.48;100.00
56912;BME280;42800;53.928;27.662;2022-09-13T09:17:48;99039.91;;;12.44;100.00
56912;BME280;42800;53.928;27.662;2022-09-13T09:20:23;99029.06;;;12.17;100.00
56912;BME280;42800;53.928;27.662;2022-09-13T09:22:52;99024.97;;;11.97;100.00
56912;BME280;42800;53.928;27.662;2022-09-13T09:25:22;99015.19;;;12.47;100.00
56912;BME280;42800;53.928;27.662;2022-09-13T09:27:49;99021.00;;;12.90;100.00
56912;BME280;42800;53.928;27.662;2022-09-13T09:30:16;99040.63;;;12.92;100.00
56912;BME280;42800;53.928;27.662;2022-09-13T09:33:04;99049.84;;;12.59;100.00
56912;BME280;42800;53.928;27.662;2022-09-13T09:35:45;99046.66;;;13.12;100.00
56912;BME280;42800;53.928;27.662;2022-09-13T09:38:32;99046.22;;;13.00;100.00
56912;BME280;42800;53.928;27.662;2022-09-13T09:41:04;99032.88;;;13.12;100.00
56912;BME280;42800;53.928;27.662;2022-09-13T09:43:36;99035.66;;;13.12;100.00
56912;BME280;42800;53.928;27.662;2022-09-13T09:46:06;99032.25;;;13.33;100.00
56912;BME280;42800;53.928;27.662;2022-09-13T09:48:39;99029.06;;;13.28;100.00
56912;BME280;42800;53.928;27.662;2022-09-13T09:51:07;99012.16;;;13.29;100.00
56912;BME280;42800;53.928;27.662;2022-09-13T09:53:39;98991.03;;;13.55;100.00
56912;BME280;42800;53.928;27.662;2022-09-13T09:56:18;98961.06;;;13.42;100.00
56912;BME280;42800;53.928;27.662;2022-09-13T09:58:46;98976.25;;;13.08;100.00
56912;BME280;42800;53.928;27.662;2022-09-13T10:01:21;98994.84;;;13.25;100.00
56912;BME280;42800;53.928;27.662;2022-09-13T10:03:51;98980.38;;;13.46;100.00
56912;BME280;42800;53.928;27.662;2022-09-13T10:06:20;98979.25;;;13.65;100.00
56912;BME280;42800;53.928;27.662;2022-09-13T10:08:54;98967.00;;;13.41;100.00
56912;BME280;42800;53.928;27.662;2022-09-13T10:11:23;98970.19;;;13.57;100.00
56912;BME280;42800;53.928;27.662;2022-09-13T10:14:00;98957.09;;;13.26;100.00
56912;BME280;42800;53.928;27.662;2022-09-13T10:16:28;98944.88;;;13.19;100.00
56912;BME280;42800;53.928;27.662;2022-09-13T10:19:16;98958.75;;;13.52;100.00
56912;BME280;42800;53.928;27.662;2022-09-13T10:21:58;98932.41;;;13.72;100.00
56912;BME280;42800;53.928;27.662;2022-09-13T10:24:26;98930.44;;;13.73;100.00
56912;BME280;42800;53.928;27.662;2022-09-13T10:26:53;98921.81;;;13.81;100.00
56912;BME280;42800;53.928;27.662;2022-09-13T10:29:21;98867.88;;;14.09;100.00
56912;BME280;42800;53.928;27.662;2022-09-13T10:31:50;98846.25;;;13.72;100.00
56912;BME280;42800;53.928;27.662;2022-09-13T10:34:21;98889.13;;;13.73;100.00
56912;BME280;42800;53.928;27.662;2022-09-13T10:36:52;98907.19;;;13.49;100.00
56912;BME280;42800;53.928;27.662;2022-09-13T10:39:21;98957.63;;;13.78;100.00
56912;BME280;42800;53.928;27.662;2022-09-13T10:41:50;98921.81;;;13.85;100.00
56912;BME280;42800;53.928;27.662;2022-09-13T10:44:35;98919.84;;;13.82;100.00
56912;BME280;42800;53.928;27.662;2022-09-13T10:47:05;98863.16;;;13.77;100.00
56912;BME280;42800;53.928;27.662;2022-09-13T10:49:37;98788.00;;;13.73;100.00
56912;BME280;42800;53.928;27.662;2022-09-13T10:52:41;98731.75;;;13.28;100.00
56912;BME280;42800;53.928;27.662;2022-09-13T10:55:30;98766.75;;;13.56;100.00
56912;BME280;42800;53.928;27.662;2022-09-13T10:58:12;98732.09;;;13.73;100.00
56912;BME280;42800;53.928;27.662;2022-09-13T11:00:48;98742.34;;;13.86;100.00
56912;BME280;42800;53.928;27.662;2022-09-13T11:03:27;98689.19;;;13.93;100.00
56912;BME280;42800;53.928;27.662;2022-09-13T11:06:04;98671.63;;;14.46;100.00
56912;BME280;42800;53.928;27.662;2022-09-13T11:08:41;98601.97;;;14.28;100.00
56912;BME280;42800;53.928;27.662;2022-09-13T11:11:15;98589.19;;;14.59;100.00
56912;BME280;42800;53.928;27.662;2022-09-13T11:13:57;98616.03;;;14.51;100.00
56912;BME280;42800;53.928;27.662;2022-09-13T11:16:39;98507.31;;;14.45;100.00
56912;BME280;42800;53.928;27.662;2022-09-13T11:19:28;98498.94;;;14.07;100.00
56912;BME280;42800;53.928;27.662;2022-09-13T11:22:11;98558.50;;;14.53;100.00
56912;BME280;42800;53.928;27.662;2022-09-13T11:24:53;98492.31;;;14.50;100.00
56912;BME280;42800;53.928;27.662;2022-09-13T11:27:31;98482.06;;;14.54;100.00
56912;BME280;42800;53.928;27.662;2022-09-13T11:30:07;98314.72;;;14.40;100.00
56912;BME280;42800;53.928;27.662;2022-09-13T11:32:55;98265.19;;;14.33;100.00
56912;BME280;42800;53.928;27.662;2022-09-13T11:35:35;98332.41;;;14.46;100.00
56912;BME280;42800;53.928;27.662;2022-09-13T11:38:12;98434.41;;;14.53;100.00
56912;BME280;42800;53.928;27.662;2022-09-13T11:40:49;98505.06;;;14.33;100.00
56912;BME280;42800;53.928;27.662;2022-09-13T11:43:40;98447.19;;;14.26;100.00
56912;BME280;42800;53.928;27.662;2022-09-13T11:46:20;98421.09;;;14.38;100.00
56912;BME280;42800;53.928;27.662;2022-09-13T11:51:44;98398.13;;;14.55;100.00
56912;BME280;42800;53.928;27.662;2022-09-13T11:54:23;98326.44;;;14.51;100.00
56912;BME280;42800;53.928;27.662;2022-09-13T11:56:58;98237.63;;;14.33;100.00
56912;BME280;42800;53.928;27.662;2022-09-13T11:59:35;98346.53;;;14.48;100.00
56912;BME280;42800;53.928;27.662;2022-09-13T12:02:08;98384.53;;;14.71;100.00
56912;BME280;42800;53.928;27.662;2022-09-13T12:04:40;98344.75;;;14.69;100.00
56912;BME280;42800;53.928;27.662;2022-09-13T12:07:17;98266.97;;;14.81;100.00
56912;BME280;42800;53.928;27.662;2022-09-13T12:09:50;98209.34;;;14.59;100.00
56912;BME280;42800;53.928;27.662;2022-09-13T12:12:18;98144.34;;;14.82;100.00
56912;BME280;42800;53.928;27.662;2022-09-13T12:14:51;98071.38;;;14.87;100.00
56912;BME280;42800;53.928;27.662;2022-09-13T12:17:26;98010.19;;;14.92;100.00
56912;BME280;42800;53.928;27.662;2022-09-13T12:19:57;97900.38;;;14.83;100.00
56912;BME280;42800;53.928;27.662;2022-09-13T12:22:27;97885.50;;;14.97;100.00
56912;BME280;42800;53.928;27.662;2022-09-13T12:24:57;97939.34;;;14.85;100.00
56912;BME280;42800;53.928;27.662;2022-09-13T12:27:28;97870.88;;;15.00;100.00
56912;BME280;42800;53.928;27.662;2022-09-13T12:30:03;97817.19;;;15.21;100.00
56912;BME280;42800;53.928;27.662;2022-09-13T12:32:30;97782.25;;;15.30;100.00
56912;BME280;42800;53.928;27.662;2022-09-13T12:34:59;97799.31;;;15.25;100.00
56912;BME280;42800;53.928;27.662;2022-09-13T12:37:45;97947.63;;;15.05;100.00
56912;BME280;42800;53.928;27.662;2022-09-13T12:40:37;97994.63;;;15.01;100.00
56912;BME280;42800;53.928;27.662;2022-09-13T12:43:37;97876.81;;;15.35;100.00
56912;BME280;42800;53.928;27.662;2022-09-13T12:46:39;97944.38;;;15.30;100.00
56912;BME280;42800;53.928;27.662;2022-09-13T12:49:27;97968.25;;;15.20;100.00
56912;BME280;42800;53.928;27.662;2022-09-13T12:52:18;97971.06;;;15.17;100.00
56912;BME280;42800;53.928;27.662;2022-09-13T12:55:30;97984.03;;;15.40;100.00
56912;BME280;42800;53.928;27.662;2022-09-13T12:58:13;97920.16;;;15.38;100.00
56912;BME280;42800;53.928;27.662;2022-09-13T13:00:47;97855.69;;;15.08;100.00
56912;BME280;42800;53.928;27.662;2022-09-13T13:03:17;97933.44;;;15.06;100.00
56912;BME280;42800;53.928;27.662;2022-09-13T13:05:46;97862.16;;;14.62;100.00
56912;BME280;42800;53.928;27.662;2022-09-13T13:08:25;97906.72;;;14.36;100.00
56912;BME280;42800;53.928;27.662;2022-09-13T13:11:00;97995.66;;;14.88;100.00
56912;BME280;42800;53.928;27.662;2022-09-13T13:13:33;97908.66;;;14.83;100.00
56912;BME280;42800;53.928;27.662;2022-09-13T13:16:20;98030.91;;;14.80;100.00
56912;BME280;42800;53.928;27.662;2022-09-13T13:18:47;97976.38;;;15.07;100.00